This is the latest recevied weather packets stored in our database for station/object DD6UBW. If no packets are shown the sender has not sent any weather packets the latest 10 day(s).
| Time | Temp. | Humidity | Pressure | Rain* | Wind** | Luminosity | Snow |
|---|---|---|---|---|---|---|---|
| 1777721401 | 24.44° C | 30% | 1020.6 hPa | 0 mm | - | - | - |
| 1777717800 | 24.44° C | 31% | 1020.6 hPa | 0 mm | - | - | - |
| 1777716003 | 23.89° C | 34% | 1021.6 hPa | 0 mm | - | - | - |
| 1777714201 | 23.33° C | 37% | 1021.6 hPa | 0 mm | - | - | - |
| 1777712401 | 22.22° C | 37% | 1021.6 hPa | 0 mm | - | - | - |
| 1777710601 | 22.22° C | 39% | 1022.6 hPa | 0 mm | - | - | - |
| 1777708801 | 21.11° C | 40% | 1022.6 hPa | 0 mm | - | - | - |
| 1777707002 | 20° C | 44% | 1022.6 hPa | 0 mm | - | - | - |
| 1777705201 | 18.33° C | 51% | 1022.6 hPa | 0 mm | - | - | - |
| 1777703400 | 16.11° C | 58% | 1022.6 hPa | 0 mm | - | - | - |
| 1777701600 | 14.44° C | 64% | 1022.6 hPa | 0 mm | - | - | - |
| 1777699804 | 12.22° C | 67% | 1022.6 hPa | 0 mm | - | - | - |
| 1777698000 | 11.67° C | 76% | 1022.6 hPa | 0 mm | - | - | - |
| 1777696201 | 7.22° C | 84% | 1022.6 hPa | 0 mm | - | - | - |
| 1777694401 | 6.67° C | 84% | 1022.6 hPa | 0 mm | - | - | - |
| 1777692601 | 6.67° C | 83% | 1023.6 hPa | 0 mm | - | - | - |
| 1777690801 | 6.67° C | 84% | 1022.6 hPa | 0 mm | - | - | - |
| 1777689000 | 7.22° C | 83% | 1023.6 hPa | 0 mm | - | - | - |
| 1777687201 | 7.22° C | 82% | 1023.6 hPa | 0 mm | - | - | - |
| 1777685407 | 7.78° C | 81% | 1023.6 hPa | 0 mm | - | - | - |
| 1777683601 | 8.33° C | 80% | 1023.6 hPa | 0 mm | - | - | - |
| 1777681801 | 8.89° C | 78% | 1023.6 hPa | 0 mm | - | - | - |
| 1777680001 | 8.89° C | 77% | 1023.6 hPa | 0 mm | - | - | - |
| 1777678201 | 10° C | 75% | 1024.6 hPa | 0 mm | - | - | - |
| 1777676401 | 10° C | 74% | 1024.6 hPa | 0 mm | - | - | - |
* Rain since midnight (hover to see other rain measurements)
** Current wind speed in m/s (hover to see current wind gust speed)